Time;durP1;ratioP1;P1;durP2;ratioP2;P2;SDS_P1;SDS_P2;PMS_P1;PMS_P2;Temp;Humidity;BMP_temperature;BMP_pressure;BME280_temperature;BME280_humidity;BME280_pressure;Samples;Min_cycle;Max_cycle;Signal;HPM_P1;HPM_P2
2022/08/26 00:01:46;;;;;;;14.88;6.13;;;;;;;;;;4975254;28;20023;-39
2022/08/26 00:04:12;;;;;;;13.05;6.47;;;;;;;;;;4975252;28;20364;-39
2022/08/26 00:06:39;;;;;;;9.45;6.65;;;;;;;;;;4975103;28;20050;-39
2022/08/26 00:09:04;;;;;;;13.90;6.30;;;;;;;;;;4974786;28;20062;-40
2022/08/26 00:11:30;;;;;;;10.73;5.93;;;;;;;;;;4974464;28;20128;-39
2022/08/26 00:13:56;;;;;;;13.95;6.40;;;;;;;;;;4974810;28;20031;-39
2022/08/26 00:16:23;;;;;;;11.10;6.82;;;;;;;;;;4974731;28;20023;-39
2022/08/26 00:18:49;;;;;;;11.15;6.50;;;;;;;;;;4974807;28;20383;-39
2022/08/26 00:21:15;;;;;;;12.98;6.72;;;;;;;;;;4974540;28;20039;-39
2022/08/26 00:23:40;;;;;;;12.15;6.40;;;;;;;;;;4974769;28;20104;-39
2022/08/26 00:26:06;;;;;;;14.70;6.88;;;;;;;;;;4974804;28;20026;-39
2022/08/26 00:28:33;;;;;;;7.13;6.38;;;;;;;;;;4974153;28;20102;-39
2022/08/26 00:30:58;;;;;;;9.07;6.45;;;;;;;;;;4974695;28;20039;-39
2022/08/26 00:33:24;;;;;;;11.88;6.90;;;;;;;;;;4974401;28;20029;-39
2022/08/26 00:35:49;;;;;;;12.95;7.03;;;;;;;;;;4974314;28;20387;-39
2022/08/26 00:38:15;;;;;;;10.73;7.00;;;;;;;;;;4974416;28;20037;-39
2022/08/26 00:40:49;;;;;;;13.18;6.50;;;;;;;;;;4974396;28;20034;-40
2022/08/26 00:43:16;;;;;;;12.90;7.00;;;;;;;;;;4974575;28;20382;-38
2022/08/26 00:45:55;;;;;;;15.05;7.60;;;;;;;;;;4974280;28;20030;-39
2022/08/26 00:48:24;;;;;;;12.45;7.28;;;;;;;;;;4974382;28;20034;-42
2022/08/26 00:50:55;;;;;;;14.60;7.05;;;;;;;;;;4974090;28;20085;-40
2022/08/26 00:53:25;;;;;;;14.23;6.45;;;;;;;;;;4974153;28;20097;-39
2022/08/26 00:56:19;;;;;;;11.30;6.70;;;;;;;;;;4974101;28;20031;-39
2022/08/26 00:58:46;;;;;;;13.02;7.68;;;;;;;;;;4973471;28;20042;-40
2022/08/26 01:01:13;;;;;;;14.90;7.78;;;;;;;;;;4973887;28;20463;-40
2022/08/26 01:03:39;;;;;;;12.05;7.60;;;;;;;;;;4973169;28;20059;-41
2022/08/26 01:06:06;;;;;;;10.95;7.80;;;;;;;;;;4974238;28;20030;-39
2022/08/26 01:08:32;;;;;;;19.13;8.18;;;;;;;;;;4973867;28;20058;-39
2022/08/26 01:11:00;;;;;;;16.65;7.78;;;;;;;;;;4974024;28;20419;-41
2022/08/26 01:13:27;;;;;;;14.40;6.97;;;;;;;;;;4973758;28;20026;-39
2022/08/26 01:15:57;;;;;;;12.13;6.95;;;;;;;;;;4973784;28;20391;-41
2022/08/26 01:18:24;;;;;;;17.35;7.20;;;;;;;;;;4973840;28;20030;-39
2022/08/26 01:21:07;;;;;;;15.20;7.80;;;;;;;;;;4973937;28;20046;-40
2022/08/26 01:23:36;;;;;;;11.50;7.00;;;;;;;;;;4972902;28;20035;-39
2022/08/26 01:26:07;;;;;;;13.90;7.75;;;;;;;;;;4973880;28;20034;-40
2022/08/26 01:28:34;;;;;;;14.40;7.85;;;;;;;;;;4973557;28;20037;-39
2022/08/26 01:31:04;;;;;;;12.07;7.13;;;;;;;;;;4973397;28;20053;-43
2022/08/26 01:33:38;;;;;;;15.57;7.70;;;;;;;;;;4973672;28;20101;-39
2022/08/26 01:36:05;;;;;;;12.82;7.28;;;;;;;;;;4973889;28;20061;-41
2022/08/26 01:38:31;;;;;;;15.68;7.53;;;;;;;;;;4973469;28;20030;-42
2022/08/26 01:40:57;;;;;;;13.35;7.55;;;;;;;;;;4973845;28;20030;-41
2022/08/26 01:43:26;;;;;;;17.58;7.95;;;;;;;;;;4973451;28;20022;-40
2022/08/26 01:45:55;;;;;;;14.13;7.13;;;;;;;;;;4973509;28;20058;-41
2022/08/26 01:48:27;;;;;;;19.52;7.15;;;;;;;;;;4973799;28;20033;-39
2022/08/26 01:50:53;;;;;;;15.68;7.13;;;;;;;;;;4973636;28;20039;-39
2022/08/26 01:53:21;;;;;;;17.55;7.30;;;;;;;;;;4973434;28;20031;-39
2022/08/26 01:55:51;;;;;;;13.35;7.18;;;;;;;;;;4973624;28;20372;-41
2022/08/26 01:58:21;;;;;;;;;;;;;;;;;;4974138;28;20106;-40
2022/08/26 02:00:47;;;;;;;16.88;6.97;;;;;;;;;;4956135;28;19914;-40
2022/08/26 02:03:17;;;;;;;17.50;6.85;;;;;;;;;;4973304;28;20035;-40
2022/08/26 02:05:55;;;;;;;16.60;7.45;;;;;;;;;;4956002;28;20564;-40
2022/08/26 02:08:41;;;;;;;28.27;7.97;;;;;;;;;;4973241;28;20479;-41
2022/08/26 02:11:07;;;;;;;20.52;7.07;;;;;;;;;;4973432;28;20045;-40
2022/08/26 02:13:36;;;;;;;18.95;8.27;;;;;;;;;;4973156;28;20023;-41
2022/08/26 02:16:02;;;;;;;16.00;7.72;;;;;;;;;;4973216;28;20105;-40
2022/08/26 02:18:31;;;;;;;18.90;7.38;;;;;;;;;;4973139;28;20041;-39
2022/08/26 02:20:57;;;;;;;14.90;7.38;;;;;;;;;;4973242;28;20471;-39
2022/08/26 02:23:24;;;;;;;18.48;8.05;;;;;;;;;;4973108;28;20031;-39
2022/08/26 02:26:17;;;;;;;15.48;7.75;;;;;;;;;;4973458;28;20026;-39
2022/08/26 02:28:51;;;;;;;12.18;7.55;;;;;;;;;;4964922;28;20043;-39
2022/08/26 02:31:17;;;;;;;18.92;7.88;;;;;;;;;;4973319;28;20039;-38
2022/08/26 02:33:42;;;;;;;16.83;8.32;;;;;;;;;;4973287;28;20023;-38
2022/08/26 02:36:08;;;;;;;11.43;7.68;;;;;;;;;;4975691;28;20383;-39
2022/08/26 02:38:34;;;;;;;19.77;7.38;;;;;;;;;;4976508;28;20027;-40
2022/08/26 02:41:00;;;;;;;16.00;7.75;;;;;;;;;;4976456;28;20034;-39
2022/08/26 02:43:25;;;;;;;25.60;7.65;;;;;;;;;;4976493;28;20031;-39
2022/08/26 02:45:51;;;;;;;18.98;7.50;;;;;;;;;;4976400;28;20027;-39
2022/08/26 02:48:20;;;;;;;13.32;7.45;;;;;;;;;;4976375;28;20114;-39
2022/08/26 02:50:46;;;;;;;16.92;7.85;;;;;;;;;;4976235;28;20118;-39
2022/08/26 02:53:12;;;;;;;14.65;7.57;;;;;;;;;;4976211;28;20383;-39
2022/08/26 02:55:39;;;;;;;15.70;7.22;;;;;;;;;;4976292;28;20023;-39
2022/08/26 02:58:04;;;;;;;16.85;7.82;;;;;;;;;;4976520;28;20418;-39
2022/08/26 03:00:31;;;;;;;18.48;7.97;;;;;;;;;;4976454;28;20073;-39
2022/08/26 03:02:57;;;;;;;15.93;7.40;;;;;;;;;;4976098;28;20026;-39
2022/08/26 03:05:23;;;;;;;16.33;6.78;;;;;;;;;;4976075;28;20065;-40
2022/08/26 03:07:49;;;;;;;18.55;7.47;;;;;;;;;;4976289;28;20027;-39
2022/08/26 03:10:15;;;;;;;15.00;7.22;;;;;;;;;;4976196;28;20533;-39
2022/08/26 03:12:41;;;;;;;21.38;7.28;;;;;;;;;;4958748;28;20073;-39
2022/08/26 03:15:08;;;;;;;11.88;6.65;;;;;;;;;;4976154;28;20106;-39
2022/08/26 03:17:33;;;;;;;21.83;7.63;;;;;;;;;;4976109;28;20018;-39
2022/08/26 03:19:59;;;;;;;17.95;7.78;;;;;;;;;;4976066;28;20038;-39
2022/08/26 03:22:25;;;;;;;20.63;7.65;;;;;;;;;;4975699;28;20475;-40
2022/08/26 03:24:51;;;;;;;15.85;7.38;;;;;;;;;;4976007;28;20038;-40
2022/08/26 03:27:17;;;;;;;13.52;7.18;;;;;;;;;;4975923;28;20037;-39
2022/08/26 03:32:27;;;;;;;12.93;7.25;;;;;;;;;;4975953;28;20037;-38
2022/08/26 03:34:55;;;;;;;15.18;7.07;;;;;;;;;;4975873;28;20027;-38
2022/08/26 03:37:20;;;;;;;16.13;7.03;;;;;;;;;;4975483;28;20023;-39
2022/08/26 03:39:46;;;;;;;17.52;7.45;;;;;;;;;;4975461;28;20031;-40
2022/08/26 03:42:11;;;;;;;21.40;7.53;;;;;;;;;;4975454;28;20028;-39
2022/08/26 03:44:37;;;;;;;20.60;7.72;;;;;;;;;;4975335;28;20029;-38
2022/08/26 03:47:02;;;;;;;21.38;8.30;;;;;;;;;;4974788;28;20019;-39
2022/08/26 03:49:30;;;;;;;16.02;7.90;;;;;;;;;;4975227;28;20038;-39
2022/08/26 03:51:55;;;;;;;19.08;7.60;;;;;;;;;;4975418;28;20438;-40
2022/08/26 03:54:20;;;;;;;16.60;7.90;;;;;;;;;;4975211;28;20051;-38
2022/08/26 03:56:46;;;;;;;14.18;7.53;;;;;;;;;;4975149;28;20027;-39
2022/08/26 03:59:11;;;;;;;17.20;9.02;;;;;;;;;;4975027;28;20027;-38
2022/08/26 04:01:37;;;;;;;18.75;7.90;;;;;;;;;;4975057;28;20031;-38
2022/08/26 04:04:03;;;;;;;17.00;8.02;;;;;;;;;;4975237;28;20030;-41
2022/08/26 04:06:43;;;;;;;18.50;8.60;;;;;;;;;;4974990;28;20029;-39
2022/08/26 04:09:14;;;;;;;18.35;8.48;;;;;;;;;;4975267;28;20062;-40
2022/08/26 04:11:41;;;;;;;19.88;8.13;;;;;;;;;;4975122;28;20190;-44
2022/08/26 04:14:12;;;;;;;22.75;7.38;;;;;;;;;;4974836;28;20034;-41
2022/08/26 04:16:37;;;;;;;16.20;7.57;;;;;;;;;;4974826;28;20035;-40
2022/08/26 04:19:03;;;;;;;20.10;8.20;;;;;;;;;;4974752;28;20022;-43
2022/08/26 04:21:28;;;;;;;20.70;8.18;;;;;;;;;;4974776;28;20390;-41
2022/08/26 04:23:54;;;;;;;27.38;7.82;;;;;;;;;;4974618;28;20031;-40
2022/08/26 04:26:21;;;;;;;15.80;7.18;;;;;;;;;;4974876;28;20030;-39
2022/08/26 04:28:48;;;;;;;12.23;6.65;;;;;;;;;;4974297;28;20041;-42
2022/08/26 04:31:16;;;;;;;17.75;7.93;;;;;;;;;;4974762;28;20382;-40
2022/08/26 04:33:44;;;;;;;27.52;7.57;;;;;;;;;;4974744;28;20041;-40
2022/08/26 04:36:10;;;;;;;20.92;7.03;;;;;;;;;;4974682;28;20022;-40
2022/08/26 04:38:35;;;;;;;16.15;7.03;;;;;;;;;;4974393;28;20034;-42
2022/08/26 04:41:02;;;;;;;16.73;6.65;;;;;;;;;;4974636;28;20094;-40
2022/08/26 04:43:29;;;;;;;26.08;7.30;;;;;;;;;;4974595;28;20035;-40
2022/08/26 04:46:00;;;;;;;12.75;6.80;;;;;;;;;;4956917;28;20026;-43
2022/08/26 04:48:28;;;;;;;23.27;6.88;;;;;;;;;;4956864;28;20030;-40
2022/08/26 04:50:54;;;;;;;12.90;6.07;;;;;;;;;;4974081;28;20479;-45
2022/08/26 04:53:20;;;;;;;16.17;5.95;;;;;;;;;;4974358;28;20077;-40
2022/08/26 04:55:46;;;;;;;16.88;5.43;;;;;;;;;;4974387;28;20034;-42
2022/08/26 04:58:23;;;;;;;21.17;6.53;;;;;;;;;;4973920;28;20490;-42
2022/08/26 05:00:50;;;;;;;17.80;5.78;;;;;;;;;;4956726;28;20155;-41
2022/08/26 05:03:16;;;;;;;17.77;6.10;;;;;;;;;;4974219;28;20023;-42
2022/08/26 05:05:43;;;;;;;14.43;5.03;;;;;;;;;;4973861;28;20387;-46
2022/08/26 05:08:10;;;;;;;16.55;5.25;;;;;;;;;;4974222;28;20390;-40
2022/08/26 05:10:45;;;;;;;14.85;5.38;;;;;;;;;;4973767;28;20486;-39
2022/08/26 05:13:12;;;;;;;17.55;4.90;;;;;;;;;;4974030;28;20175;-42
2022/08/26 05:15:38;;;;;;;15.57;5.55;;;;;;;;;;4973940;28;20030;-43
2022/08/26 05:18:05;;;;;;;15.60;5.60;;;;;;;;;;4973972;28;20031;-39
2022/08/26 05:20:31;;;;;;;17.02;5.18;;;;;;;;;;4973768;28;20031;-40
2022/08/26 05:23:00;;;;;;;19.00;5.47;;;;;;;;;;4974053;28;20037;-39
2022/08/26 05:25:29;;;;;;;15.18;5.40;;;;;;;;;;4973651;28;20054;-42
2022/08/26 05:27:55;;;;;;;16.02;6.00;;;;;;;;;;4973829;28;20461;-44
2022/08/26 05:30:21;;;;;;;15.95;5.20;;;;;;;;;;4973277;28;20569;-40
2022/08/26 05:32:48;;;;;;;15.43;6.20;;;;;;;;;;4973921;28;20031;-44
2022/08/26 05:35:15;;;;;;;16.08;5.50;;;;;;;;;;4956322;28;20019;-45
2022/08/26 05:37:41;;;;;;;23.35;5.90;;;;;;;;;;4974113;28;20046;-44
2022/08/26 05:40:07;;;;;;;20.40;5.65;;;;;;;;;;4973576;28;20478;-42
2022/08/26 05:42:32;;;;;;;16.48;5.13;;;;;;;;;;4973537;28;20110;-46
2022/08/26 05:44:58;;;;;;;13.52;5.10;;;;;;;;;;4973513;28;20027;-42
2022/08/26 05:47:25;;;;;;;16.65;5.38;;;;;;;;;;4973777;28;20495;-41
2022/08/26 05:49:51;;;;;;;13.50;4.75;;;;;;;;;;4973697;28;20498;-44
2022/08/26 05:52:17;;;;;;;15.90;4.65;;;;;;;;;;4956450;28;20114;-42
2022/08/26 05:54:43;;;;;;;15.77;5.03;;;;;;;;;;4973387;28;20030;-39
2022/08/26 05:57:10;;;;;;;13.20;4.97;;;;;;;;;;4973638;28;20113;-41
2022/08/26 05:59:37;;;;;;;16.15;5.10;;;;;;;;;;4973683;28;20034;-40
2022/08/26 06:02:04;;;;;;;12.98;4.95;;;;;;;;;;4973407;28;20019;-41
2022/08/26 06:04:30;;;;;;;14.95;4.60;;;;;;;;;;4972897;28;20026;-41
2022/08/26 06:06:56;;;;;;;17.52;6.18;;;;;;;;;;4973581;28;20035;-45
2022/08/26 06:09:22;;;;;;;13.10;4.88;;;;;;;;;;4973231;28;20030;-45
2022/08/26 06:11:48;;;;;;;9.90;4.90;;;;;;;;;;4977004;28;20031;-42
2022/08/26 06:14:14;;;;;;;17.98;4.20;;;;;;;;;;4977273;28;20048;-44
2022/08/26 06:16:42;;;;;;;10.02;5.03;;;;;;;;;;4977207;28;20031;-43
2022/08/26 06:19:10;;;;;;;13.52;4.97;;;;;;;;;;4976871;28;20038;-45
2022/08/26 06:21:38;;;;;;;10.93;4.60;;;;;;;;;;4976855;28;20037;-41
2022/08/26 06:27:00;;;;;;;13.55;4.47;;;;;;;;;;4976865;28;20037;-39
2022/08/26 06:29:30;;;;;;;13.43;5.60;;;;;;;;;;4976624;28;20043;-40
2022/08/26 06:31:56;;;;;;;19.02;4.63;;;;;;;;;;4976645;28;20376;-40
2022/08/26 06:34:23;;;;;;;17.23;5.35;;;;;;;;;;4976555;28;20486;-39
2022/08/26 06:36:49;;;;;;;14.68;5.55;;;;;;;;;;4976834;28;20026;-43
2022/08/26 06:39:16;;;;;;;16.15;5.00;;;;;;;;;;4976864;28;20391;-40
2022/08/26 06:41:46;;;;;;;11.02;4.25;;;;;;;;;;4976569;28;20044;-40
2022/08/26 06:44:14;;;;;;;13.68;4.63;;;;;;;;;;4976725;28;20030;-41
2022/08/26 06:46:40;;;;;;;15.90;5.00;;;;;;;;;;4976682;28;20110;-40
2022/08/26 06:49:06;;;;;;;18.42;5.10;;;;;;;;;;4976369;28;20062;-42
2022/08/26 06:51:35;;;;;;;12.20;4.63;;;;;;;;;;4976457;28;20113;-39
2022/08/26 06:54:02;;;;;;;10.63;4.50;;;;;;;;;;4976245;28;20055;-42
2022/08/26 06:56:32;;;;;;;14.07;5.05;;;;;;;;;;4976194;28;20034;-40
2022/08/26 06:58:58;;;;;;;21.73;4.97;;;;;;;;;;4974465;28;20026;-41
2022/08/26 07:01:29;;;;;;;19.00;4.55;;;;;;;;;;4972326;28;20541;-42
2022/08/26 07:03:57;;;;;;;14.30;4.82;;;;;;;;;;4975838;28;20034;-41
2022/08/26 07:06:24;;;;;;;24.88;5.22;;;;;;;;;;4975891;28;20082;-39
2022/08/26 07:08:53;;;;;;;21.42;5.32;;;;;;;;;;4989480;28;20386;-42
2022/08/26 07:11:19;;;;;;;16.58;4.43;;;;;;;;;;4995428;28;20045;-42
2022/08/26 07:13:49;;;;;;;15.73;4.15;;;;;;;;;;4995279;28;20373;-38
2022/08/26 07:16:16;;;;;;;17.05;4.28;;;;;;;;;;4995498;28;20030;-41
2022/08/26 07:18:42;;;;;;;14.73;4.00;;;;;;;;;;4995330;28;20548;-39
2022/08/26 07:21:11;;;;;;;18.70;4.97;;;;;;;;;;4976370;28;20106;-41
2022/08/26 07:23:37;;;;;;;13.25;4.15;;;;;;;;;;4994974;28;20117;-43
2022/08/26 07:26:07;;;;;;;18.13;4.13;;;;;;;;;;4994663;28;20033;-43
2022/08/26 07:28:33;;;;;;;19.73;4.38;;;;;;;;;;4995185;28;20038;-40
2022/08/26 07:31:06;;;;;;;12.85;4.00;;;;;;;;;;4994802;28;20046;-40
2022/08/26 07:33:32;;;;;;;17.70;4.25;;;;;;;;;;4994225;28;20030;-44
2022/08/26 07:35:57;;;;;;;12.75;3.75;;;;;;;;;;4994965;28;20022;-40
2022/08/26 07:38:23;;;;;;;9.98;3.53;;;;;;;;;;4977103;28;20073;-38
2022/08/26 07:40:48;;;;;;;16.92;3.60;;;;;;;;;;4993401;28;20030;-39
2022/08/26 07:43:14;;;;;;;15.98;4.47;;;;;;;;;;4993049;28;20034;-42
2022/08/26 07:45:41;;;;;;;19.42;3.97;;;;;;;;;;4993254;28;20030;-44
2022/08/26 07:48:07;;;;;;;27.13;4.43;;;;;;;;;;4993167;28;20030;-44
2022/08/26 07:50:33;;;;;;;22.45;5.75;;;;;;;;;;4993271;28;20378;-41
2022/08/26 07:53:00;;;;;;;24.88;4.97;;;;;;;;;;4993258;28;20026;-47
2022/08/26 07:55:26;;;;;;;18.27;3.90;;;;;;;;;;4992925;28;20035;-41
2022/08/26 07:57:52;;;;;;;22.80;5.25;;;;;;;;;;4992832;28;20031;-41
2022/08/26 08:00:17;;;;;;;17.83;4.03;;;;;;;;;;4981554;28;20023;-41
2022/08/26 08:02:44;;;;;;;16.55;4.10;;;;;;;;;;4973235;28;20046;-48
2022/08/26 08:05:11;;;;;;;16.27;5.15;;;;;;;;;;4972550;28;20463;-41
2022/08/26 08:07:37;;;;;;;16.88;3.40;;;;;;;;;;4973279;28;20031;-44
2022/08/26 08:10:04;;;;;;;11.63;3.55;;;;;;;;;;4973369;28;20033;-45
2022/08/26 08:12:30;;;;;;;21.25;4.40;;;;;;;;;;4973096;28;20043;-44
2022/08/26 08:14:55;;;;;;;16.20;4.13;;;;;;;;;;4973475;28;20031;-42
2022/08/26 08:17:21;;;;;;;12.20;3.70;;;;;;;;;;4955745;28;20035;-39
2022/08/26 08:19:46;;;;;;;18.17;4.15;;;;;;;;;;4973298;28;20387;-39
2022/08/26 08:22:16;;;;;;;25.23;4.63;;;;;;;;;;4972688;28;20030;-39
2022/08/26 08:24:42;;;;;;;16.23;4.15;;;;;;;;;;4973164;28;20049;-42
2022/08/26 08:27:07;;;;;;;17.88;3.67;;;;;;;;;;4972683;28;20109;-39
2022/08/26 08:29:36;;;;;;;20.00;3.55;;;;;;;;;;4972724;28;20052;-39
2022/08/26 08:32:03;;;;;;;15.70;3.35;;;;;;;;;;4972301;28;20074;-40
2022/08/26 08:34:29;;;;;;;24.13;4.20;;;;;;;;;;4972034;28;20027;-39
2022/08/26 08:36:56;;;;;;;13.55;3.75;;;;;;;;;;4969142;28;20046;-39
2022/08/26 08:39:22;;;;;;;10.07;3.95;;;;;;;;;;4972215;28;20482;-39
2022/08/26 08:41:57;;;;;;;20.15;4.20;;;;;;;;;;4972930;28;20062;-38
2022/08/26 08:44:24;;;;;;;14.50;3.67;;;;;;;;;;4972849;28;20090;-41
2022/08/26 08:46:57;;;;;;;16.83;3.28;;;;;;;;;;4972989;28;20034;-41
2022/08/26 08:49:24;;;;;;;17.50;3.92;;;;;;;;;;4956025;28;20026;-39
2022/08/26 08:52:00;;;;;;;27.85;3.83;;;;;;;;;;4972719;28;20035;-45
2022/08/26 08:54:25;;;;;;;8.95;3.17;;;;;;;;;;4972719;28;20052;-44
2022/08/26 08:57:11;;;;;;;15.85;3.60;;;;;;;;;;4972246;28;20785;-43
2022/08/26 08:59:44;;;;;;;8.93;3.15;;;;;;;;;;4969647;28;20081;-42
2022/08/26 09:02:41;;;;;;;17.08;3.78;;;;;;;;;;4972462;28;20023;-41
2022/08/26 09:05:23;;;;;;;12.40;3.15;;;;;;;;;;4911592;29;20464;-42
2022/08/26 09:08:01;;;;;;;18.05;3.67;;;;;;;;;;4954404;29;20106;-41
2022/08/26 09:10:59;;;;;;;26.98;3.60;;;;;;;;;;4954546;29;20471;-39
2022/08/26 09:13:27;;;;;;;16.50;4.50;;;;;;;;;;4912567;29;20061;-42
2022/08/26 09:16:07;;;;;;;20.73;3.88;;;;;;;;;;4954423;29;20028;-46
2022/08/26 09:18:36;;;;;;;12.63;3.22;;;;;;;;;;4954764;29;20050;-42
2022/08/26 09:21:04;;;;;;;21.57;4.13;;;;;;;;;;4954561;29;20054;-38
2022/08/26 09:23:33;;;;;;;19.45;3.70;;;;;;;;;;4954444;29;20265;-42
2022/08/26 09:25:59;;;;;;;;;;;;;;;;;;4954888;29;20474;-42
2022/08/26 09:28:27;;;;;;;13.82;4.00;;;;;;;;;;4964248;28;19964;-41
2022/08/26 09:31:18;;;;;;;21.00;3.80;;;;;;;;;;4973317;28;20050;-40
2022/08/26 09:33:43;;;;;;;21.40;4.68;;;;;;;;;;4973719;28;20038;-39
2022/08/26 09:36:21;;;;;;;13.55;4.20;;;;;;;;;;4973490;28;20407;-43
2022/08/26 09:38:46;;;;;;;20.30;4.15;;;;;;;;;;4973542;28;20027;-45
2022/08/26 09:41:32;;;;;;;30.35;4.30;;;;;;;;;;4973539;28;20038;-40
2022/08/26 09:44:12;;;;;;;15.50;3.72;;;;;;;;;;4973382;28;20034;-45
2022/08/26 09:47:02;;;;;;;21.23;4.38;;;;;;;;;;4977639;28;20034;-41
2022/08/26 09:49:38;;;;;;;19.17;3.80;;;;;;;;;;4977780;28;20031;-43
2022/08/26 09:52:16;;;;;;;18.27;4.03;;;;;;;;;;4977316;28;20429;-40
2022/08/26 09:54:44;;;;;;;23.50;4.32;;;;;;;;;;4977459;28;20518;-39
2022/08/26 09:57:25;;;;;;;20.80;3.90;;;;;;;;;;4977654;28;20085;-40
2022/08/26 09:59:50;;;;;;;21.80;3.80;;;;;;;;;;4977441;28;20448;-38
2022/08/26 10:02:26;;;;;;;21.10;3.85;;;;;;;;;;4977581;28;20101;-40
2022/08/26 10:04:55;;;;;;;26.85;4.15;;;;;;;;;;4976323;28;20771;-44
2022/08/26 10:07:41;;;;;;;17.85;3.72;;;;;;;;;;4977466;28;20267;-40
2022/08/26 10:10:30;;;;;;;17.50;3.60;;;;;;;;;;4977471;28;20045;-46
2022/08/26 10:12:58;;;;;;;16.10;3.53;;;;;;;;;;4976389;28;20401;-40
2022/08/26 10:15:26;;;;;;;13.10;3.30;;;;;;;;;;4977051;28;20027;-47
2022/08/26 10:18:00;;;;;;;18.15;3.75;;;;;;;;;;4977030;28;20113;-40
2022/08/26 10:20:30;;;;;;;15.50;3.60;;;;;;;;;;4976806;28;20058;-43
2022/08/26 10:23:11;;;;;;;10.15;3.47;;;;;;;;;;4977132;28;20045;-45
2022/08/26 10:25:54;;;;;;;23.33;4.20;;;;;;;;;;4976102;28;20022;-40
2022/08/26 10:28:33;;;;;;;14.05;3.65;;;;;;;;;;4976748;28;20379;-46
2022/08/26 10:31:25;;;;;;;17.63;4.47;;;;;;;;;;4976661;28;20146;-41
2022/08/26 10:33:52;;;;;;;18.92;3.83;;;;;;;;;;4968287;28;20481;-48
2022/08/26 10:39:09;;;;;;;13.43;3.25;;;;;;;;;;4976975;28;20088;-43
2022/08/26 10:41:39;;;;;;;23.35;4.13;;;;;;;;;;4976495;28;20026;-40
2022/08/26 10:44:09;;;;;;;16.42;3.78;;;;;;;;;;4976349;28;20126;-41
2022/08/26 10:46:43;;;;;;;16.35;3.90;;;;;;;;;;4976896;28;20034;-44
2022/08/26 10:49:13;;;;;;;14.27;3.08;;;;;;;;;;4976451;28;20062;-42
2022/08/26 10:51:52;;;;;;;16.25;3.28;;;;;;;;;;4976600;28;20030;-40
2022/08/26 10:54:39;;;;;;;24.23;3.78;;;;;;;;;;4976331;28;20027;-39
2022/08/26 10:57:13;;;;;;;25.13;3.90;;;;;;;;;;4975896;28;20022;-39
2022/08/26 10:59:59;;;;;;;17.25;3.60;;;;;;;;;;4976335;28;20058;-40
2022/08/26 11:02:47;;;;;;;16.40;3.45;;;;;;;;;;4976475;28;20037;-39
2022/08/26 11:05:22;;;;;;;21.88;3.40;;;;;;;;;;4976003;28;20027;-43
2022/08/26 11:08:08;;;;;;;21.67;4.28;;;;;;;;;;4976111;28;20031;-43
2022/08/26 11:10:57;;;;;;;18.20;3.72;;;;;;;;;;4975466;28;20391;-42
2022/08/26 11:14:00;;;;;;;21.25;3.53;;;;;;;;;;4975038;28;20483;-40
2022/08/26 11:16:52;;;;;;;16.50;3.10;;;;;;;;;;4974322;28;20062;-44
2022/08/26 11:19:29;;;;;;;18.45;3.33;;;;;;;;;;4974560;28;20110;-41
2022/08/26 11:22:23;;;;;;;21.55;3.63;;;;;;;;;;4974579;28;20114;-49
2022/08/26 11:24:52;;;;;;;16.10;3.65;;;;;;;;;;4974482;28;20038;-45
2022/08/26 11:27:37;;;;;;;16.90;3.53;;;;;;;;;;4974522;28;20078;-45
2022/08/26 11:30:12;;;;;;;16.73;4.32;;;;;;;;;;4960169;28;20039;-48
2022/08/26 11:32:40;;;;;;;26.40;3.70;;;;;;;;;;4974083;28;20464;-47
2022/08/26 11:35:08;;;;;;;17.95;3.40;;;;;;;;;;4975556;28;20038;-45
2022/08/26 11:37:38;;;;;;;18.40;3.70;;;;;;;;;;4975465;28;20086;-43
2022/08/26 11:40:20;;;;;;;18.08;3.10;;;;;;;;;;4975832;28;20031;-42
2022/08/26 11:42:54;;;;;;;12.10;3.63;;;;;;;;;;4975857;28;20042;-45
2022/08/26 11:45:39;;;;;;;18.60;3.45;;;;;;;;;;4975418;28;20027;-44
2022/08/26 11:48:29;;;;;;;11.90;3.40;;;;;;;;;;4973747;28;20035;-43
2022/08/26 11:51:20;;;;;;;22.10;4.15;;;;;;;;;;4956048;28;20510;-40
2022/08/26 11:53:46;;;;;;;15.63;3.20;;;;;;;;;;4974374;28;20042;-41
2022/08/26 11:56:23;;;;;;;19.75;3.58;;;;;;;;;;4973694;28;20022;-40
2022/08/26 11:58:51;;;;;;;22.33;4.18;;;;;;;;;;4973609;28;20561;-43
2022/08/26 12:01:32;;;;;;;16.48;3.50;;;;;;;;;;4973910;28;20413;-42
2022/08/26 12:03:59;;;;;;;11.98;3.13;;;;;;;;;;4973528;28;20106;-47
2022/08/26 12:06:29;;;;;;;18.52;3.33;;;;;;;;;;4973478;28;20053;-37
2022/08/26 12:08:59;;;;;;;20.90;3.67;;;;;;;;;;4973059;28;20027;-40
2022/08/26 12:11:30;;;;;;;18.88;3.35;;;;;;;;;;4973668;28;20038;-39
2022/08/26 12:14:03;;;;;;;20.48;3.88;;;;;;;;;;4973239;28;20057;-40
2022/08/26 12:16:36;;;;;;;15.80;3.55;;;;;;;;;;4973298;28;20118;-39
2022/08/26 12:19:24;;;;;;;13.45;3.65;;;;;;;;;;4955665;28;20031;-44
2022/08/26 12:21:56;;;;;;;17.48;3.25;;;;;;;;;;4973262;28;20057;-40
2022/08/26 12:24:21;;;;;;;16.40;3.50;;;;;;;;;;4973337;28;20038;-42
2022/08/26 12:26:47;;;;;;;21.13;3.60;;;;;;;;;;4973159;28;20382;-45
2022/08/26 12:29:24;;;;;;;19.48;3.30;;;;;;;;;;4973087;28;20054;-47
2022/08/26 12:31:52;;;;;;;21.83;3.70;;;;;;;;;;4973017;28;20066;-38
2022/08/26 12:34:18;;;;;;;28.00;4.47;;;;;;;;;;4973211;28;20049;-47
2022/08/26 12:36:47;;;;;;;17.65;3.58;;;;;;;;;;4972810;28;20494;-42
2022/08/26 12:39:26;;;;;;;15.07;3.33;;;;;;;;;;4973227;28;20081;-47
2022/08/26 12:41:55;;;;;;;17.38;3.47;;;;;;;;;;4972944;28;20039;-44
2022/08/26 12:44:54;;;;;;;17.88;3.80;;;;;;;;;;4972740;28;20386;-41
2022/08/26 12:47:21;;;;;;;22.55;3.90;;;;;;;;;;4972206;28;20105;-50
2022/08/26 12:49:46;;;;;;;19.75;3.55;;;;;;;;;;4972687;28;20037;-46
2022/08/26 12:52:29;;;;;;;17.13;3.05;;;;;;;;;;4972553;28;20035;-40
2022/08/26 12:55:01;;;;;;;17.40;3.45;;;;;;;;;;4972654;28;20521;-45
2022/08/26 12:57:34;;;;;;;12.80;3.40;;;;;;;;;;4972582;28;20485;-42
2022/08/26 13:00:28;;;;;;;27.20;4.13;;;;;;;;;;4972605;28;20019;-48
2022/08/26 13:02:53;;;;;;;14.20;3.55;;;;;;;;;;4972410;28;20459;-42
2022/08/26 13:05:34;;;;;;;18.73;4.32;;;;;;;;;;4972113;28;20098;-46
2022/08/26 13:08:24;;;;;;;15.75;3.33;;;;;;;;;;4972585;28;20037;-44
2022/08/26 13:11:09;;;;;;;14.25;3.35;;;;;;;;;;4972572;28;20031;-40
2022/08/26 13:13:34;;;;;;;26.40;3.78;;;;;;;;;;4972525;28;20035;-44
2022/08/26 13:16:00;;;;;;;11.02;3.03;;;;;;;;;;4972554;28;20368;-45
2022/08/26 13:18:26;;;;;;;28.08;3.80;;;;;;;;;;4972093;28;20023;-44
2022/08/26 13:20:52;;;;;;;17.90;3.55;;;;;;;;;;4972456;28;20041;-41
2022/08/26 13:23:20;;;;;;;16.15;3.95;;;;;;;;;;4972242;28;20018;-40
2022/08/26 13:25:45;;;;;;;11.95;3.30;;;;;;;;;;4971915;28;20472;-47
2022/08/26 13:28:13;;;;;;;20.75;3.30;;;;;;;;;;4954614;28;20042;-41
2022/08/26 13:30:41;;;;;;;18.30;3.70;;;;;;;;;;4971822;28;20047;-46
2022/08/26 13:33:07;;;;;;;12.73;3.95;;;;;;;;;;4971539;28;20041;-40
2022/08/26 13:35:33;;;;;;;24.73;3.17;;;;;;;;;;4970647;28;20048;-42
2022/08/26 13:37:58;;;;;;;18.80;3.60;;;;;;;;;;4971047;28;20034;-45
2022/08/26 13:40:24;;;;;;;18.52;3.88;;;;;;;;;;4971201;28;20435;-41
2022/08/26 13:42:50;;;;;;;15.07;3.42;;;;;;;;;;4970691;28;20038;-43
2022/08/26 13:45:16;;;;;;;18.45;3.22;;;;;;;;;;4971304;28;20374;-43
2022/08/26 13:47:41;;;;;;;28.95;4.20;;;;;;;;;;4970442;28;20487;-41
2022/08/26 13:50:07;;;;;;;21.60;3.60;;;;;;;;;;4970551;28;20042;-40
2022/08/26 13:52:33;;;;;;;19.48;3.45;;;;;;;;;;4970868;28;20031;-43
2022/08/26 13:54:59;;;;;;;20.92;3.42;;;;;;;;;;4953600;28;20062;-45
2022/08/26 13:57:26;;;;;;;14.00;3.10;;;;;;;;;;4970479;28;20463;-42
2022/08/26 13:59:54;;;;;;;15.32;3.45;;;;;;;;;;4970178;28;20825;-43
2022/08/26 14:02:20;;;;;;;8.38;2.63;;;;;;;;;;4970887;28;20034;-45
2022/08/26 14:04:45;;;;;;;19.13;3.95;;;;;;;;;;4971018;28;20034;-42
2022/08/26 14:07:10;;;;;;;14.80;3.20;;;;;;;;;;4970267;28;20026;-38
2022/08/26 14:09:36;;;;;;;14.77;4.20;;;;;;;;;;4970630;28;20360;-45
2022/08/26 14:12:02;;;;;;;10.52;2.67;;;;;;;;;;4970125;28;20065;-41
2022/08/26 14:14:27;;;;;;;15.40;3.15;;;;;;;;;;4970269;28;20110;-40
2022/08/26 14:16:55;;;;;;;10.25;3.08;;;;;;;;;;4970565;28;20038;-42
2022/08/26 14:19:21;;;;;;;19.17;3.58;;;;;;;;;;4970146;28;20063;-47
2022/08/26 14:21:48;;;;;;;16.88;3.63;;;;;;;;;;4970456;28;20058;-42
2022/08/26 14:24:13;;;;;;;12.95;3.15;;;;;;;;;;4970183;28;20027;-43
2022/08/26 14:26:39;;;;;;;17.17;3.10;;;;;;;;;;4970276;28;20027;-42
2022/08/26 14:29:05;;;;;;;15.73;3.65;;;;;;;;;;4980086;28;20043;-46
2022/08/26 14:31:33;;;;;;;20.77;3.47;;;;;;;;;;4991297;28;20041;-40
2022/08/26 14:34:02;;;;;;;18.98;3.63;;;;;;;;;;4993325;28;20034;-48
2022/08/26 14:36:30;;;;;;;18.38;3.20;;;;;;;;;;4993273;28;20026;-42
2022/08/26 14:39:00;;;;;;;22.52;3.92;;;;;;;;;;4992987;28;20489;-38
2022/08/26 14:41:27;;;;;;;14.63;3.50;;;;;;;;;;4993177;28;20030;-45
2022/08/26 14:43:58;;;;;;;18.17;3.83;;;;;;;;;;4992904;28;20065;-39
2022/08/26 14:46:27;;;;;;;12.10;3.80;;;;;;;;;;4992991;28;20034;-37
2022/08/26 14:48:56;;;;;;;22.95;3.80;;;;;;;;;;4993028;28;20026;-38
2022/08/26 14:51:22;;;;;;;;;;;;;;;;;;4993301;28;20473;-41
2022/08/26 14:56:34;;;;;;;21.05;3.67;;;;;;;;;;4982516;28;20117;-43
2022/08/26 14:59:00;;;;;;;19.90;3.63;;;;;;;;;;4955442;28;20110;-38